MDT,Max TemperatureF,Mean TemperatureF,Min TemperatureF,Max Dew PointF,MeanDew PointF,Min DewpointF,Max Humidity, Mean Humidity, Min Humidity, Max Sea Level PressureIn, Mean Sea Level PressureIn, Min Sea Level PressureIn, Max VisibilityMiles, Mean VisibilityMiles, Min VisibilityMiles, Max Wind SpeedMPH, Mean Wind SpeedMPH, Max Gust SpeedMPH,PrecipitationIn, CloudCover, Events, WindDirDegrees
2012-10-1,83,61,39,33,29,24,62,38,13,30.22,30.12,30.04,10,10,10,12,3,17,0.00,0,,33
2012-10-2,84,61,37,30,27,19,64,37,10,30.09,29.98,29.88,10,10,10,15,3,20,0.00,0,,260
2012-10-3,85,65,45,32,26,22,49,30,11,29.96,29.91,29.85,10,10,10,21,8,25,0.00,0,,198
2012-10-4,79,61,43,29,25,14,42,28,13,30.04,29.97,29.91,10,10,10,20,6,26,0.00,0,,200
2012-10-5,75,59,42,32,27,20,58,38,17,30.07,29.99,29.91,10,10,10,12,5,17,0.00,0,,270
2012-10-6,71,54,36,21,17,14,40,26,12,30.09,30.01,29.93,10,10,10,10,4,15,0.00,0,,339
2012-10-7,70,49,28,18,13,9,51,31,10,30.13,30.05,29.98,10,10,10,10,2,13,0.00,0,,330
2012-10-8,74,54,33,28,22,14,48,32,16,30.05,29.96,29.90,10,10,10,17,5,24,0.00,0,,194
2012-10-9,76,58,39,36,30,25,60,38,15,30.00,29.92,29.87,10,10,10,17,7,23,0.00,0,,195
2012-10-10,73,59,45,42,36,31,60,45,29,30.00,29.92,29.85,10,10,10,20,6,26,0.00,1,,196
2012-10-11,68,55,42,48,40,33,70,49,27,30.02,29.90,29.84,10,10,2,24,8,31,0.00,4,Rain-Thunderstorm,117
2012-10-12,49,45,40,46,41,33,93,77,60,30.10,29.98,29.81,10,8,2,33,10,44,0.59,8,Rain-Thunderstorm,212
2012-10-13,64,51,38,45,41,37,100,72,43,30.26,30.16,30.05,10,8,0,12,4,15,0.04,3,Fog-Rain,210
2012-10-14,67,51,35,42,38,35,92,63,34,30.33,30.24,30.17,10,10,10,7,2,26,0.00,0,,52
2012-10-15,73,54,34,40,35,28,92,57,22,30.14,30.06,29.99,10,10,10,10,3,14,0.00,0,,167
2012-10-16,75,56,37,41,37,33,85,54,23,30.00,29.90,29.79,10,10,10,15,4,20,0.00,0,,210
2012-10-17,64,50,36,42,23,14,71,44,16,30.16,30.05,29.89,10,10,10,14,8,20,0.00,0,,360
2012-10-18,69,49,28,23,19,14,69,42,14,30.27,30.19,30.13,10,10,10,12,1,16,0.00,0,,310
2012-10-19,74,51,28,29,26,21,75,45,14,30.18,30.04,29.89,10,10,10,8,2,10,0.00,0,,154
2012-10-20,73,55,37,33,24,19,60,37,14,29.89,29.78,29.69,10,10,10,24,9,31,0.00,0,,188
2012-10-21,69,59,48,42,37,26,59,46,32,29.75,29.71,29.68,10,10,10,28,13,37,0.00,0,,205
2012-10-22,65,59,53,42,37,33,66,50,34,29.71,29.68,29.63,10,10,10,36,19,49,0.00,2,,198
2012-10-23,64,57,49,34,25,18,50,33,16,29.75,29.70,29.65,10,10,10,31,21,44,0.00,0,,209
2012-10-24,53,42,30,30,27,23,82,59,36,30.11,29.90,29.73,10,10,10,21,4,28,0.00,2,,277
2012-10-25,53,36,19,24,21,14,96,59,22,30.31,30.18,30.09,10,10,10,15,2,21,0.00,0,,14
2012-10-26,52,35,18,20,15,10,84,52,19,30.44,30.31,30.20,10,10,10,7,3,16,0.00,0,,40
2012-10-27,63,42,21,21,16,13,68,42,16,30.22,30.15,30.09,10,10,10,10,3,13,0.00,0,,352
2012-10-28,68,47,25,24,22,20,69,43,16,30.19,30.11,30.03,10,10,10,6,1,9,0.00,0,,156
2012-10-29,71,50,28,27,22,19,69,42,14,30.21,30.13,30.08,10,10,10,8,1,10,0.00,0,,197
2012-10-30,73,53,32,28,24,22,64,41,17,30.19,30.12,30.05,10,10,10,9,1,14,0.00,0,,190
2012-10-31,73,52,30,27,20,13,69,40,11,30.14,30.06,29.98,10,10,10,20,5,26,0.00,0,,214